createdAt,value
2018-09-14T00:00:20.464Z,89.10
2018-09-14T00:00:51.559Z,89.20
2018-09-14T00:01:22.608Z,89.10
2018-09-14T00:01:53.663Z,89.20
2018-09-14T00:02:24.728Z,89.20
2018-09-14T00:02:55.771Z,89.10
2018-09-14T00:03:26.824Z,89.10
2018-09-14T00:03:57.871Z,89.10
2018-09-14T00:04:28.924Z,89.10
2018-09-14T00:04:59.970Z,89.10
2018-09-14T00:05:31.011Z,89.10
2018-09-14T00:06:02.063Z,89.10
2018-09-14T00:06:33.110Z,89.10
2018-09-14T00:07:04.171Z,89.20
2018-09-14T00:07:35.220Z,89.20
2018-09-14T00:08:06.268Z,89.20
2018-09-14T00:08:37.319Z,89.20
2018-09-14T00:09:08.372Z,89.40
2018-09-14T00:09:39.411Z,89.30
2018-09-14T00:10:10.456Z,89.40
2018-09-14T00:10:41.511Z,89.40
2018-09-14T00:11:12.568Z,89.40
2018-09-14T00:11:43.595Z,89.50
2018-09-14T00:12:14.653Z,89.40
2018-09-14T00:12:45.700Z,89.40
2018-09-14T00:13:16.739Z,89.40
2018-09-14T00:13:47.789Z,89.50
2018-09-14T00:14:18.841Z,88.80
2018-09-14T00:14:49.892Z,89.40
2018-09-14T00:15:20.944Z,89.40
2018-09-14T00:15:51.994Z,89.40
2018-09-14T00:16:23.048Z,89.40
2018-09-14T00:16:54.096Z,89.50
2018-09-14T00:17:25.152Z,89.40
2018-09-14T00:17:56.203Z,89.40
2018-09-14T00:18:27.249Z,89.40
2018-09-14T00:18:58.286Z,89.50
2018-09-14T00:19:29.336Z,89.40
2018-09-14T00:20:00.380Z,89.40
2018-09-14T00:20:31.426Z,89.40
2018-09-14T00:21:02.473Z,89.40
2018-09-14T00:21:33.506Z,89.40
2018-09-14T00:22:04.560Z,89.50
2018-09-14T00:22:35.622Z,89.40
2018-09-14T00:23:06.675Z,89.30
2018-09-14T00:23:37.731Z,89.30
2018-09-14T00:24:08.788Z,89.30
2018-09-14T00:24:39.833Z,89.20
2018-09-14T00:25:10.887Z,89.20
2018-09-14T00:25:41.929Z,89.20
2018-09-14T00:26:12.973Z,89.30
2018-09-14T00:26:44.031Z,89.10
2018-09-14T00:27:15.088Z,89.10
2018-09-14T00:27:46.135Z,89.10
2018-09-14T00:28:17.179Z,89.10
2018-09-14T00:28:48.244Z,89.10
2018-09-14T00:29:19.297Z,89.10
2018-09-14T00:29:50.349Z,89.10
2018-09-14T00:30:21.400Z,89.10
2018-09-14T00:30:52.448Z,89.10
2018-09-14T00:31:23.498Z,89.10
2018-09-14T00:31:54.539Z,89.10
2018-09-14T00:32:25.601Z,89.10
2018-09-14T00:32:56.653Z,89.10
2018-09-14T00:33:27.698Z,89.10
2018-09-14T00:33:58.743Z,89.10
2018-09-14T00:34:29.788Z,89.10
2018-09-14T00:35:00.842Z,89.10
2018-09-14T00:35:31.887Z,89.60
2018-09-14T00:36:02.931Z,89.10
2018-09-14T00:36:33.980Z,89.10
2018-09-14T00:37:05.019Z,89.10
2018-09-14T00:37:36.068Z,89.10
2018-09-14T00:38:07.125Z,89.10
2018-09-14T00:38:38.171Z,89.00
2018-09-14T00:39:09.216Z,89.10
2018-09-14T00:39:40.270Z,89.10
2018-09-14T00:40:11.316Z,89.10
2018-09-14T00:40:42.364Z,88.50
2018-09-14T00:41:13.403Z,89.10
2018-09-14T00:41:44.460Z,89.00
2018-09-14T00:42:15.507Z,89.00
2018-09-14T00:42:46.559Z,89.10
2018-09-14T00:43:17.607Z,89.10
2018-09-14T00:43:48.666Z,89.10
2018-09-14T00:44:19.725Z,89.20
2018-09-14T00:44:50.772Z,89.10
2018-09-14T00:45:21.818Z,89.20
2018-09-14T00:45:52.867Z,89.20
2018-09-14T00:46:23.915Z,89.30
2018-09-14T00:46:54.962Z,89.40
2018-09-14T00:47:26.007Z,89.30
2018-09-14T00:47:57.055Z,89.40
2018-09-14T00:48:28.104Z,89.40
2018-09-14T00:48:59.158Z,89.40
2018-09-14T00:49:30.203Z,89.30
2018-09-14T00:50:01.248Z,89.30
2018-09-14T00:50:32.300Z,89.40
2018-09-14T00:51:03.352Z,89.40
2018-09-14T00:51:34.396Z,89.40
2018-09-14T00:52:05.450Z,89.40
2018-09-14T00:52:36.511Z,89.40
2018-09-14T00:53:07.553Z,89.40
2018-09-14T00:53:38.600Z,89.40
2018-09-14T00:54:09.647Z,89.40
2018-09-14T00:54:40.691Z,89.40
2018-09-14T00:55:11.736Z,89.40
2018-09-14T00:55:42.778Z,89.40
2018-09-14T00:56:13.823Z,89.40
2018-09-14T00:56:44.875Z,89.40
2018-09-14T00:57:15.910Z,89.30
2018-09-14T00:57:46.963Z,89.30
2018-09-14T00:58:18.003Z,89.30
2018-09-14T00:58:49.081Z,89.30
2018-09-14T00:59:20.099Z,89.20
2018-09-14T00:59:51.144Z,89.20
2018-09-14T01:00:22.192Z,89.10
2018-09-14T01:00:53.241Z,89.00
2018-09-14T01:01:24.279Z,89.00
2018-09-14T01:01:55.326Z,89.00
2018-09-14T01:02:26.384Z,89.00
2018-09-14T01:02:57.440Z,89.00
2018-09-14T01:03:28.490Z,89.00
2018-09-14T01:03:59.547Z,89.00
2018-09-14T01:04:30.595Z,89.00
2018-09-14T01:05:01.644Z,89.00
2018-09-14T01:05:32.699Z,89.00
2018-09-14T01:06:03.755Z,89.00
2018-09-14T01:06:34.811Z,89.00
2018-09-14T01:07:05.845Z,89.00
2018-09-14T01:07:36.900Z,88.90
2018-09-14T01:08:07.948Z,88.90
2018-09-14T01:08:38.999Z,89.00
2018-09-14T01:09:10.115Z,88.90
2018-09-14T01:09:41.168Z,89.00
2018-09-14T01:10:12.216Z,88.90
2018-09-14T01:10:43.260Z,89.00
2018-09-14T01:11:14.306Z,89.00
2018-09-14T01:11:45.360Z,89.00
2018-09-14T01:12:16.409Z,89.00
2018-09-14T01:12:47.468Z,89.00
2018-09-14T01:13:18.515Z,89.00
2018-09-14T01:13:49.860Z,89.00
2018-09-14T01:14:20.950Z,89.00
2018-09-14T01:14:52.000Z,88.90
2018-09-14T01:15:23.052Z,88.90
2018-09-14T01:15:54.098Z,88.90
2018-09-14T01:16:25.152Z,88.90
2018-09-14T01:16:56.204Z,88.90
2018-09-14T01:17:27.249Z,88.80
2018-09-14T01:17:58.307Z,88.90
2018-09-14T01:18:29.356Z,88.80
2018-09-14T01:19:00.404Z,88.80
2018-09-14T01:19:31.452Z,88.90
2018-09-14T01:20:02.504Z,89.10
2018-09-14T01:20:33.556Z,88.90
2018-09-14T01:21:04.596Z,89.00
2018-09-14T01:21:35.649Z,88.90
2018-09-14T01:22:06.705Z,88.90
2018-09-14T01:22:37.755Z,88.90
2018-09-14T01:23:08.809Z,88.90
2018-09-14T01:23:39.874Z,88.90
2018-09-14T01:24:10.904Z,88.80
2018-09-14T01:24:41.953Z,88.90
2018-09-14T01:25:13.006Z,88.90
2018-09-14T01:25:44.108Z,88.80
2018-09-14T01:26:15.104Z,88.80
2018-09-14T01:26:46.146Z,88.80
2018-09-14T01:27:17.191Z,88.80
2018-09-14T01:27:48.248Z,88.80
2018-09-14T01:28:19.450Z,88.90
2018-09-14T01:28:50.500Z,88.80
2018-09-14T01:29:21.569Z,88.80
2018-09-14T01:29:52.594Z,88.80
2018-09-14T01:30:23.643Z,88.90
2018-09-14T01:30:54.687Z,89.00
2018-09-14T01:31:25.737Z,89.00
2018-09-14T01:31:56.788Z,88.80
2018-09-14T01:32:27.868Z,88.80
2018-09-14T01:32:58.912Z,88.80
2018-09-14T01:33:29.960Z,88.80
2018-09-14T01:34:01.007Z,88.80
2018-09-14T01:34:32.056Z,88.80
2018-09-14T01:35:03.098Z,88.70
2018-09-14T01:35:34.148Z,88.70
2018-09-14T01:36:05.205Z,88.50
2018-09-14T01:36:36.260Z,88.50
2018-09-14T01:37:07.310Z,88.50
2018-09-14T01:37:38.353Z,88.50
2018-09-14T01:38:09.632Z,88.50
2018-09-14T01:38:40.684Z,88.50
2018-09-14T01:39:11.736Z,88.50
2018-09-14T01:39:42.792Z,88.60
2018-09-14T01:40:13.840Z,88.50
2018-09-14T01:40:44.893Z,88.50
2018-09-14T01:41:15.936Z,88.50
2018-09-14T01:41:46.999Z,88.50
2018-09-14T01:42:18.037Z,88.50
2018-09-14T01:42:49.088Z,88.50
2018-09-14T01:43:20.183Z,88.50
2018-09-14T01:43:51.191Z,88.50
2018-09-14T01:44:22.357Z,88.70
2018-09-14T01:44:53.407Z,88.50
2018-09-14T01:45:24.462Z,88.50
2018-09-14T01:45:55.506Z,88.50
2018-09-14T01:46:26.569Z,88.50
2018-09-14T01:46:57.615Z,88.50
2018-09-14T01:47:28.663Z,88.50
2018-09-14T01:47:59.713Z,88.50
2018-09-14T01:48:30.766Z,88.50
2018-09-14T01:49:01.817Z,88.50
2018-09-14T01:49:32.857Z,88.50
2018-09-14T01:50:03.913Z,88.40
2018-09-14T01:50:34.963Z,88.40
2018-09-14T01:51:06.020Z,88.40
2018-09-14T01:51:37.062Z,88.40
2018-09-14T01:52:08.108Z,88.40
2018-09-14T01:52:39.159Z,88.40
2018-09-14T01:53:10.215Z,88.40
2018-09-14T01:53:41.257Z,88.40
2018-09-14T01:54:12.304Z,88.40
2018-09-14T01:54:43.354Z,88.40
2018-09-14T01:55:14.403Z,88.70
2018-09-14T01:55:45.447Z,88.50
2018-09-14T01:56:16.497Z,88.40
2018-09-14T01:56:47.544Z,88.40
2018-09-14T01:57:18.591Z,88.50
2018-09-14T01:57:49.630Z,88.40
2018-09-14T01:58:20.689Z,88.40
2018-09-14T01:58:51.730Z,88.40
2018-09-14T01:59:22.784Z,88.30
2018-09-14T01:59:53.840Z,88.20
2018-09-14T02:00:24.883Z,88.20
2018-09-14T02:00:55.926Z,88.30
2018-09-14T02:01:27.099Z,88.30
2018-09-14T02:01:58.125Z,88.20
2018-09-14T02:02:29.178Z,88.20
2018-09-14T02:03:00.233Z,88.20
2018-09-14T02:03:31.374Z,88.40
2018-09-14T02:04:02.324Z,88.20
2018-09-14T02:04:33.367Z,88.20
2018-09-14T02:05:04.637Z,88.20
2018-09-14T02:05:35.656Z,88.20
2018-09-14T02:06:06.706Z,88.30
2018-09-14T02:06:37.754Z,88.20
2018-09-14T02:07:08.800Z,89.00
2018-09-14T02:07:39.848Z,88.20
2018-09-14T02:08:10.911Z,88.20
2018-09-14T02:08:41.960Z,89.00
2018-09-14T02:09:13.016Z,88.20
2018-09-14T02:09:44.061Z,88.20
2018-09-14T02:10:15.108Z,88.20
2018-09-14T02:10:46.166Z,88.20
2018-09-14T02:11:17.211Z,88.20
2018-09-14T02:11:48.260Z,88.10
2018-09-14T02:12:19.313Z,88.10
2018-09-14T02:12:50.357Z,88.00
2018-09-14T02:13:21.410Z,88.00
2018-09-14T02:13:52.455Z,88.00
2018-09-14T02:14:23.502Z,88.00
2018-09-14T02:14:54.552Z,88.00
2018-09-14T02:15:25.595Z,88.00
2018-09-14T02:15:56.644Z,88.10
2018-09-14T02:16:27.691Z,88.00
2018-09-14T02:16:58.736Z,88.00
2018-09-14T02:17:29.783Z,88.00
2018-09-14T02:18:00.832Z,88.00
2018-09-14T02:18:31.899Z,88.00
2018-09-14T02:19:02.946Z,88.00
2018-09-14T02:19:34.001Z,88.00
2018-09-14T02:20:05.040Z,88.00
2018-09-14T02:20:36.096Z,88.10
2018-09-14T02:21:07.145Z,88.10
2018-09-14T02:21:38.234Z,88.00
2018-09-14T02:22:09.306Z,88.00
2018-09-14T02:22:40.313Z,88.50
2018-09-14T02:23:11.379Z,88.00
2018-09-14T02:23:42.434Z,88.00
2018-09-14T02:24:13.491Z,88.00
2018-09-14T02:24:44.543Z,88.00
2018-09-14T02:25:15.615Z,88.00
2018-09-14T02:25:46.668Z,88.00
2018-09-14T02:26:17.721Z,88.00
2018-09-14T02:26:48.808Z,88.00
2018-09-14T02:27:19.848Z,88.00
2018-09-14T02:27:50.900Z,88.10
2018-09-14T02:28:22.003Z,88.00
2018-09-14T02:28:53.060Z,87.90
2018-09-14T02:29:24.108Z,88.00
2018-09-14T02:29:55.161Z,87.90
2018-09-14T02:30:26.213Z,87.90
2018-09-14T02:30:57.259Z,87.50
2018-09-14T02:31:28.309Z,87.90
2018-09-14T02:31:59.360Z,87.90
2018-09-14T02:32:30.411Z,87.90
2018-09-14T02:33:01.456Z,88.00
2018-09-14T02:33:32.539Z,87.40
2018-09-14T02:34:03.591Z,88.00
2018-09-14T02:34:34.630Z,87.90
2018-09-14T02:35:05.680Z,87.90
2018-09-14T02:35:36.726Z,87.90
2018-09-14T02:36:07.775Z,87.80
2018-09-14T02:36:38.833Z,87.80
2018-09-14T02:37:09.871Z,87.80
2018-09-14T02:37:40.965Z,87.80
2018-09-14T02:38:12.019Z,87.80
2018-09-14T02:38:43.098Z,87.80
2018-09-14T02:39:14.139Z,87.80
2018-09-14T02:39:45.185Z,87.70
2018-09-14T02:40:16.231Z,87.70
2018-09-14T02:40:47.272Z,87.70
2018-09-14T02:41:18.315Z,87.80
2018-09-14T02:41:49.360Z,87.70
2018-09-14T02:42:20.408Z,87.70
2018-09-14T02:42:51.460Z,87.70
2018-09-14T02:43:22.518Z,87.70
2018-09-14T02:43:53.591Z,87.70
2018-09-14T02:44:24.721Z,87.70
2018-09-14T02:44:55.764Z,87.70
2018-09-14T02:45:26.807Z,87.70
2018-09-14T02:45:57.859Z,87.80
2018-09-14T02:46:28.915Z,88.30
2018-09-14T02:46:59.969Z,87.80
2018-09-14T02:47:31.089Z,87.80
2018-09-14T02:48:02.059Z,87.80
2018-09-14T02:48:33.104Z,87.80
2018-09-14T02:49:04.152Z,87.70
2018-09-14T02:49:35.208Z,87.60
2018-09-14T02:50:06.247Z,87.60
2018-09-14T02:50:37.298Z,87.60
2018-09-14T02:51:08.348Z,87.50
2018-09-14T02:51:39.399Z,87.60
2018-09-14T02:52:10.444Z,87.50
2018-09-14T02:52:41.495Z,87.50
2018-09-14T02:53:12.539Z,87.50
2018-09-14T02:53:43.595Z,87.50
2018-09-14T02:54:14.647Z,87.60
2018-09-14T02:54:45.700Z,87.50
2018-09-14T02:55:16.742Z,87.50
2018-09-14T02:55:47.800Z,87.50
2018-09-14T02:56:18.847Z,87.60
2018-09-14T02:56:49.899Z,87.50
2018-09-14T02:57:20.948Z,87.50
2018-09-14T02:57:52.001Z,87.50
2018-09-14T02:58:23.054Z,87.50
2018-09-14T02:58:54.108Z,87.60
2018-09-14T02:59:25.155Z,87.50
2018-09-14T02:59:56.210Z,87.50
2018-09-14T03:00:27.273Z,87.50
2018-09-14T03:00:58.296Z,87.50
2018-09-14T03:01:29.340Z,87.50
2018-09-14T03:02:00.382Z,87.50
2018-09-14T03:02:31.436Z,88.20
2018-09-14T03:03:02.488Z,87.50
2018-09-14T03:03:33.547Z,87.50
2018-09-14T03:04:04.608Z,87.50
2018-09-14T03:04:35.663Z,87.50
2018-09-14T03:05:06.711Z,87.50
2018-09-14T03:05:37.759Z,87.50
2018-09-14T03:06:08.800Z,87.40
2018-09-14T03:06:39.858Z,87.40
2018-09-14T03:07:10.900Z,88.20
2018-09-14T03:07:41.942Z,87.40
2018-09-14T03:08:12.996Z,87.40
2018-09-14T03:08:44.055Z,88.10
2018-09-14T03:09:15.107Z,87.50
2018-09-14T03:09:46.155Z,87.50
2018-09-14T03:10:17.212Z,87.70
2018-09-14T03:10:48.259Z,87.50
2018-09-14T03:11:19.309Z,87.40
2018-09-14T03:11:50.356Z,87.20
2018-09-14T03:12:21.402Z,87.20
2018-09-14T03:12:52.446Z,87.20
2018-09-14T03:13:23.499Z,87.20
2018-09-14T03:13:54.546Z,87.20
2018-09-14T03:14:25.599Z,87.20
2018-09-14T03:14:56.662Z,88.00
2018-09-14T03:15:27.699Z,87.30
2018-09-14T03:15:58.746Z,87.20
2018-09-14T03:16:29.791Z,87.20
2018-09-14T03:17:00.888Z,87.20
2018-09-14T03:17:31.886Z,87.60
2018-09-14T03:18:02.944Z,87.20
2018-09-14T03:18:34.007Z,87.20
2018-09-14T03:19:05.064Z,87.10
2018-09-14T03:19:36.115Z,87.20
2018-09-14T03:20:07.169Z,87.20
2018-09-14T03:20:38.219Z,87.10
2018-09-14T03:21:09.272Z,87.10
2018-09-14T03:21:40.316Z,87.80
2018-09-14T03:22:11.363Z,87.10
2018-09-14T03:22:42.423Z,87.10
2018-09-14T03:23:13.468Z,87.20
2018-09-14T03:23:44.526Z,88.10
2018-09-14T03:24:15.581Z,87.40
2018-09-14T03:24:46.636Z,87.30
2018-09-14T03:25:17.679Z,87.20
2018-09-14T03:25:48.738Z,87.10
2018-09-14T03:26:19.790Z,87.20
2018-09-14T03:26:50.844Z,87.10
2018-09-14T03:27:21.883Z,87.10
2018-09-14T03:27:52.940Z,87.10
2018-09-14T03:28:23.991Z,87.10
2018-09-14T03:28:55.052Z,87.10
2018-09-14T03:29:26.104Z,87.10
2018-09-14T03:29:57.156Z,87.10
2018-09-14T03:30:28.339Z,87.10
2018-09-14T03:30:59.392Z,87.10
2018-09-14T03:31:30.440Z,87.00
2018-09-14T03:32:01.490Z,87.20
2018-09-14T03:32:32.540Z,87.10
2018-09-14T03:33:03.594Z,87.10
2018-09-14T03:33:34.651Z,87.10
2018-09-14T03:34:05.709Z,87.20
2018-09-14T03:34:36.754Z,87.10
2018-09-14T03:35:07.803Z,87.00
2018-09-14T03:35:38.859Z,87.00
2018-09-14T03:36:09.907Z,87.10
2018-09-14T03:36:40.956Z,87.10
2018-09-14T03:37:12.005Z,87.00
2018-09-14T03:37:43.056Z,87.10
2018-09-14T03:38:14.116Z,87.00
2018-09-14T03:38:45.171Z,87.00
2018-09-14T03:39:16.262Z,87.00
2018-09-14T03:39:47.280Z,87.00
2018-09-14T03:40:18.337Z,87.00
2018-09-14T03:40:49.392Z,87.00
2018-09-14T03:41:20.441Z,87.00
2018-09-14T03:41:51.485Z,87.10
2018-09-14T03:42:22.542Z,87.80
2018-09-14T03:42:53.590Z,87.00
2018-09-14T03:43:24.635Z,87.00
2018-09-14T03:43:55.687Z,87.00
2018-09-14T03:44:26.740Z,87.00
2018-09-14T03:44:57.794Z,87.00
2018-09-14T03:45:28.891Z,87.00
2018-09-14T03:45:59.944Z,87.10
2018-09-14T03:46:31.003Z,87.20
2018-09-14T03:47:02.045Z,87.10
2018-09-14T03:47:33.087Z,87.10
2018-09-14T03:48:04.137Z,87.00
2018-09-14T03:48:35.188Z,87.00
2018-09-14T03:49:06.247Z,87.00
2018-09-14T03:49:37.296Z,87.00
2018-09-14T03:50:08.353Z,87.10
2018-09-14T03:50:39.399Z,87.10
2018-09-14T03:51:10.447Z,87.00
2018-09-14T03:51:41.505Z,87.00
2018-09-14T03:52:12.551Z,87.00
2018-09-14T03:52:43.601Z,87.80
2018-09-14T03:53:14.647Z,87.00
2018-09-14T03:53:45.710Z,86.90
2018-09-14T03:54:16.760Z,86.80
2018-09-14T03:54:47.821Z,86.80
2018-09-14T03:55:18.863Z,86.80
2018-09-14T03:55:49.924Z,86.80
2018-09-14T03:56:20.977Z,86.90
2018-09-14T03:56:52.031Z,86.90
2018-09-14T03:57:23.140Z,86.90
2018-09-14T03:57:54.176Z,87.60
2018-09-14T03:58:25.244Z,86.90
2018-09-14T03:58:56.289Z,86.90
2018-09-14T03:59:27.340Z,87.00
2018-09-14T03:59:58.391Z,87.00
2018-09-14T04:00:29.460Z,87.10
2018-09-14T04:01:00.509Z,87.00
2018-09-14T04:01:31.557Z,86.90
2018-09-14T04:02:02.610Z,86.80
2018-09-14T04:02:33.672Z,86.90
2018-09-14T04:03:04.720Z,86.80
2018-09-14T04:03:35.756Z,86.80
2018-09-14T04:04:06.872Z,86.80
2018-09-14T04:04:37.861Z,86.80
2018-09-14T04:05:08.903Z,86.80
2018-09-14T04:05:39.956Z,86.80
2018-09-14T04:06:11.009Z,86.80
2018-09-14T04:06:42.056Z,86.70
2018-09-14T04:07:13.183Z,86.80
2018-09-14T04:07:44.310Z,86.80
2018-09-14T04:08:15.279Z,86.80
2018-09-14T04:08:46.673Z,86.80
2018-09-14T04:09:17.894Z,86.80
2018-09-14T04:09:48.937Z,86.80
2018-09-14T04:10:19.987Z,86.80
2018-09-14T04:10:51.138Z,86.80
2018-09-14T04:11:22.176Z,86.80
2018-09-14T04:11:53.225Z,86.70
2018-09-14T04:12:24.267Z,86.80
2018-09-14T04:12:55.317Z,86.80
2018-09-14T04:13:26.742Z,86.80
2018-09-14T04:13:57.804Z,86.80
2018-09-14T04:14:28.987Z,86.80
2018-09-14T04:15:00.013Z,86.80
2018-09-14T04:15:31.060Z,87.60
2018-09-14T04:16:02.151Z,86.80
2018-09-14T04:16:33.199Z,86.70
2018-09-14T04:17:04.250Z,86.70
2018-09-14T04:17:35.296Z,86.70
2018-09-14T04:18:06.338Z,86.70
2018-09-14T04:18:37.390Z,86.70
2018-09-14T04:19:08.443Z,86.80
2018-09-14T04:19:39.487Z,86.80
2018-09-14T04:20:10.530Z,86.70
2018-09-14T04:20:41.584Z,86.70
2018-09-14T04:21:12.629Z,86.80
2018-09-14T04:21:43.681Z,86.80
2018-09-14T04:22:14.741Z,86.30
2018-09-14T04:22:45.769Z,86.90
2018-09-14T04:23:16.816Z,86.80
2018-09-14T04:23:47.858Z,86.80
2018-09-14T04:24:18.906Z,86.80
2018-09-14T04:24:49.954Z,86.70
2018-09-14T04:25:21.009Z,86.70
2018-09-14T04:25:52.058Z,86.70
2018-09-14T04:26:23.100Z,86.70
2018-09-14T04:26:54.148Z,86.70
2018-09-14T04:27:25.186Z,86.80
2018-09-14T04:27:56.293Z,86.80
2018-09-14T04:28:27.334Z,86.80
2018-09-14T04:28:58.374Z,86.80
2018-09-14T04:29:29.439Z,86.80
2018-09-14T04:30:00.492Z,86.80
2018-09-14T04:30:31.534Z,86.80
2018-09-14T04:31:02.587Z,86.90
2018-09-14T04:31:33.639Z,87.00
2018-09-14T04:32:04.680Z,87.00
2018-09-14T04:32:35.723Z,87.00
2018-09-14T04:33:06.779Z,87.00
2018-09-14T04:33:37.824Z,87.00
2018-09-14T04:34:08.875Z,87.10
2018-09-14T04:34:39.935Z,87.10
2018-09-14T04:35:10.987Z,87.10
2018-09-14T04:35:42.023Z,87.10
2018-09-14T04:36:13.074Z,87.10
2018-09-14T04:36:44.124Z,87.00
2018-09-14T04:37:15.162Z,86.90
2018-09-14T04:37:46.211Z,86.80
2018-09-14T04:38:17.360Z,86.70
2018-09-14T04:38:48.303Z,86.70
2018-09-14T04:39:19.363Z,87.50
2018-09-14T04:39:50.408Z,86.70
2018-09-14T04:40:21.452Z,86.70
2018-09-14T04:40:52.496Z,86.70
2018-09-14T04:41:23.540Z,86.70
2018-09-14T04:41:54.584Z,87.60
2018-09-14T04:42:25.628Z,86.70
2018-09-14T04:42:56.666Z,86.70
2018-09-14T04:43:27.713Z,86.70
2018-09-14T04:43:58.757Z,86.70
2018-09-14T04:44:29.812Z,86.70
2018-09-14T04:45:00.862Z,86.70
2018-09-14T04:45:31.910Z,86.70
2018-09-14T04:46:02.955Z,86.70
2018-09-14T04:46:33.994Z,86.70
2018-09-14T04:47:05.039Z,86.70
2018-09-14T04:47:36.086Z,86.70
2018-09-14T04:48:07.138Z,86.70
2018-09-14T04:48:38.185Z,86.70
2018-09-14T04:49:09.232Z,86.60
2018-09-14T04:49:40.283Z,86.50
2018-09-14T04:50:11.325Z,86.60
2018-09-14T04:50:42.371Z,86.60
2018-09-14T04:51:13.437Z,87.30
2018-09-14T04:51:44.467Z,87.40
2018-09-14T04:52:15.502Z,86.60
2018-09-14T04:52:46.555Z,86.60
2018-09-14T04:53:17.595Z,86.60
2018-09-14T04:53:48.655Z,86.70
2018-09-14T04:54:19.709Z,86.70
2018-09-14T04:54:50.751Z,86.60
2018-09-14T04:55:21.792Z,86.60
2018-09-14T04:55:52.842Z,86.60
2018-09-14T04:56:23.891Z,86.60
2018-09-14T04:56:54.940Z,86.60
2018-09-14T04:57:26.029Z,86.60
2018-09-14T04:57:57.023Z,86.70
2018-09-14T04:58:28.071Z,86.80
2018-09-14T04:58:59.114Z,86.90
2018-09-14T04:59:30.159Z,86.80
2018-09-14T05:00:01.203Z,86.80
2018-09-14T05:00:32.247Z,86.80
2018-09-14T05:01:03.291Z,86.70
2018-09-14T05:01:34.334Z,86.70
2018-09-14T05:02:05.379Z,86.80
2018-09-14T05:02:36.473Z,86.70
2018-09-14T05:03:07.551Z,86.70
2018-09-14T05:03:38.547Z,86.70
2018-09-14T05:04:09.590Z,86.70
2018-09-14T05:04:40.628Z,86.70
2018-09-14T05:05:11.667Z,86.70
2018-09-14T05:05:42.712Z,86.70
2018-09-14T05:06:13.791Z,86.70
2018-09-14T05:06:44.831Z,86.70
2018-09-14T05:07:15.870Z,86.70
2018-09-14T05:07:46.911Z,86.70
2018-09-14T05:08:17.955Z,86.70
2018-09-14T05:08:49.002Z,86.70
2018-09-14T05:09:20.060Z,86.70
2018-09-14T05:09:51.111Z,86.70
2018-09-14T05:10:22.155Z,86.80
2018-09-14T05:10:53.210Z,86.80
2018-09-14T05:11:24.252Z,86.80
2018-09-14T05:11:55.296Z,86.80
2018-09-14T05:12:26.340Z,86.90
2018-09-14T05:12:57.379Z,86.90
2018-09-14T05:13:28.427Z,86.90
2018-09-14T05:13:59.494Z,86.70
2018-09-14T05:14:30.522Z,86.50
2018-09-14T05:15:01.583Z,86.50
2018-09-14T05:15:32.627Z,86.50
2018-09-14T05:16:03.675Z,86.40
2018-09-14T05:16:34.719Z,86.50
2018-09-14T05:17:05.768Z,86.50
2018-09-14T05:17:36.810Z,86.50
2018-09-14T05:18:07.851Z,86.50
2018-09-14T05:18:38.898Z,86.50
2018-09-14T05:19:09.943Z,86.50
2018-09-14T05:19:41.009Z,86.50
2018-09-14T05:20:12.050Z,86.50
2018-09-14T05:20:43.135Z,86.60
2018-09-14T05:21:14.147Z,86.60
2018-09-14T05:21:45.186Z,86.60
2018-09-14T05:22:16.235Z,86.50
2018-09-14T05:22:47.283Z,86.60
2018-09-14T05:23:18.324Z,86.70
2018-09-14T05:23:49.386Z,86.60
2018-09-14T05:24:20.428Z,86.60
2018-09-14T05:24:51.478Z,86.50
2018-09-14T05:25:22.527Z,86.50
2018-09-14T05:25:53.574Z,86.50
2018-09-14T05:26:24.616Z,86.50
2018-09-14T05:26:55.672Z,86.50
2018-09-14T05:27:26.708Z,86.50
2018-09-14T05:27:57.747Z,86.50
2018-09-14T05:28:28.795Z,86.50
2018-09-14T05:28:59.835Z,86.50
2018-09-14T05:29:30.899Z,86.50
2018-09-14T05:30:01.949Z,86.50
2018-09-14T05:30:32.983Z,86.50
2018-09-14T05:31:04.491Z,86.50
2018-09-14T05:31:35.528Z,86.50
2018-09-14T05:32:06.570Z,86.50
2018-09-14T05:32:37.611Z,86.50
2018-09-14T05:33:08.656Z,86.50
2018-09-14T05:33:39.706Z,86.50
2018-09-14T05:34:10.743Z,86.50
2018-09-14T05:34:41.799Z,86.50
2018-09-14T05:35:12.847Z,86.70
2018-09-14T05:35:43.890Z,86.70
2018-09-14T05:36:14.934Z,86.60
2018-09-14T05:36:45.978Z,86.50
2018-09-14T05:37:17.026Z,86.50
2018-09-14T05:37:48.075Z,86.50
2018-09-14T05:38:19.154Z,86.50
2018-09-14T05:38:50.161Z,86.60
2018-09-14T05:39:21.200Z,86.50
2018-09-14T05:39:52.253Z,86.50
2018-09-14T05:40:23.295Z,86.50
2018-09-14T05:40:54.338Z,86.50
2018-09-14T05:41:25.396Z,86.50
2018-09-14T05:41:56.427Z,86.40
2018-09-14T05:42:27.467Z,86.50
2018-09-14T05:42:58.516Z,86.50
2018-09-14T05:43:29.559Z,86.50
2018-09-14T05:44:00.603Z,86.50
2018-09-14T05:44:31.643Z,86.50
2018-09-14T05:45:02.696Z,86.50
2018-09-14T05:45:33.746Z,85.90
2018-09-14T05:46:04.792Z,86.60
2018-09-14T05:46:35.839Z,86.70
2018-09-14T05:47:06.886Z,86.70
2018-09-14T05:47:37.936Z,86.70
2018-09-14T05:48:08.979Z,86.80
2018-09-14T05:48:40.023Z,86.70
2018-09-14T05:49:11.071Z,86.80
2018-09-14T05:49:42.127Z,86.70
2018-09-14T05:50:13.167Z,86.60
2018-09-14T05:50:44.220Z,86.50
2018-09-14T05:51:15.270Z,86.50
2018-09-14T05:51:46.318Z,86.40
2018-09-14T05:52:17.369Z,86.40
2018-09-14T05:52:48.408Z,86.50
2018-09-14T05:53:19.450Z,86.50
2018-09-14T05:53:50.490Z,86.50
2018-09-14T05:54:21.594Z,86.50
2018-09-14T05:54:52.588Z,86.50
2018-09-14T05:55:23.639Z,86.50
2018-09-14T05:55:54.675Z,86.50
2018-09-14T05:56:25.723Z,86.50
2018-09-14T05:56:56.772Z,86.50
2018-09-14T05:57:27.815Z,86.50
2018-09-14T05:57:58.851Z,86.50
2018-09-14T05:58:29.900Z,86.50
2018-09-14T05:59:00.979Z,86.50
2018-09-14T05:59:32.034Z,87.40
2018-09-14T06:00:03.096Z,86.40
2018-09-14T06:00:34.140Z,86.40
2018-09-14T06:01:05.178Z,86.50
2018-09-14T06:01:36.417Z,86.40
2018-09-14T06:02:07.439Z,86.40
2018-09-14T06:02:38.487Z,86.40
2018-09-14T06:03:09.537Z,86.40
2018-09-14T06:03:40.574Z,86.40
2018-09-14T06:04:11.615Z,86.50
2018-09-14T06:04:42.671Z,86.40
2018-09-14T06:05:13.724Z,86.50
2018-09-14T06:05:44.775Z,86.40
2018-09-14T06:06:15.819Z,86.40
2018-09-14T06:06:46.859Z,86.40
2018-09-14T06:07:17.904Z,87.20
2018-09-14T06:07:48.947Z,86.50
2018-09-14T06:08:19.995Z,86.40
2018-09-14T06:08:51.045Z,86.40
2018-09-14T06:09:22.087Z,86.40
2018-09-14T06:09:53.134Z,86.40
2018-09-14T06:10:24.180Z,86.50
2018-09-14T06:10:55.229Z,86.50
2018-09-14T06:11:26.267Z,86.60
2018-09-14T06:11:57.314Z,86.50
2018-09-14T06:12:28.359Z,86.60
2018-09-14T06:12:59.407Z,86.50
2018-09-14T06:13:30.473Z,86.50
2018-09-14T06:14:01.516Z,86.50
2018-09-14T06:14:32.560Z,86.40
2018-09-14T06:15:03.616Z,86.40
2018-09-14T06:15:34.666Z,86.50
2018-09-14T06:16:05.706Z,86.50
2018-09-14T06:16:36.755Z,86.40
2018-09-14T06:17:07.933Z,86.40
2018-09-14T06:17:38.928Z,86.50
2018-09-14T06:18:09.967Z,86.50
2018-09-14T06:18:41.011Z,86.50
2018-09-14T06:19:12.055Z,87.20
2018-09-14T06:19:43.098Z,86.50
2018-09-14T06:20:14.204Z,86.50
2018-09-14T06:20:45.242Z,86.50
2018-09-14T06:21:16.295Z,86.50
2018-09-14T06:21:47.339Z,86.50
2018-09-14T06:22:18.384Z,86.50
2018-09-14T06:22:49.481Z,86.50
2018-09-14T06:23:20.470Z,87.30
2018-09-14T06:23:51.511Z,86.60
2018-09-14T06:24:22.559Z,86.50
2018-09-14T06:24:53.613Z,86.50
2018-09-14T06:25:24.663Z,86.50
2018-09-14T06:25:55.709Z,86.50
2018-09-14T06:26:26.743Z,86.40
2018-09-14T06:26:57.792Z,86.30
2018-09-14T06:27:28.835Z,86.20
2018-09-14T06:27:59.887Z,86.30
2018-09-14T06:28:30.926Z,86.20
2018-09-14T06:29:01.978Z,86.20
2018-09-14T06:29:33.019Z,87.10
2018-09-14T06:30:04.076Z,86.30
2018-09-14T06:30:35.120Z,86.30
2018-09-14T06:31:06.175Z,86.30
2018-09-14T06:31:37.236Z,86.40
2018-09-14T06:32:08.275Z,86.30
2018-09-14T06:32:39.326Z,86.40
2018-09-14T06:33:10.363Z,86.40
2018-09-14T06:33:41.474Z,86.40
2018-09-14T06:34:12.523Z,86.40
2018-09-14T06:34:43.567Z,86.40
2018-09-14T06:35:14.639Z,86.40
2018-09-14T06:35:45.686Z,86.50
2018-09-14T06:36:16.740Z,86.40
2018-09-14T06:36:47.787Z,86.30
2018-09-14T06:37:18.827Z,86.40
2018-09-14T06:37:49.887Z,86.50
2018-09-14T06:38:20.986Z,86.30
2018-09-14T06:38:51.975Z,86.40
2018-09-14T06:39:23.018Z,86.40
2018-09-14T06:39:54.124Z,86.30